createdAt,value
2019-01-18T00:00:48.042Z,4.78
2019-01-18T00:03:18.337Z,4.15
2019-01-18T00:05:48.565Z,7.40
2019-01-18T00:08:18.770Z,5.03
2019-01-18T00:10:48.957Z,5.62
2019-01-18T00:13:19.157Z,4.53
2019-01-18T00:15:49.601Z,5.90
2019-01-18T00:18:19.781Z,6.62
2019-01-18T00:20:49.954Z,4.95
2019-01-18T00:23:25.433Z,6.37
2019-01-18T00:25:55.740Z,5.08
2019-01-18T00:28:25.943Z,4.42
2019-01-18T00:30:56.124Z,3.70
2019-01-18T00:33:26.314Z,7.67
2019-01-18T00:36:08.953Z,5.70
2019-01-18T00:38:51.743Z,3.80
2019-01-18T00:41:32.199Z,3.67
2019-01-18T00:44:21.738Z,3.47
2019-01-18T00:47:04.554Z,4.80
2019-01-18T00:49:47.458Z,4.65
2019-01-18T00:52:29.463Z,3.83
2019-01-18T00:55:12.238Z,3.95
2019-01-18T00:57:54.595Z,5.42
2019-01-18T01:00:36.622Z,2.90
2019-01-18T01:03:19.214Z,3.47
2019-01-18T01:06:01.376Z,5.20
2019-01-18T01:08:44.086Z,3.90
2019-01-18T01:11:26.659Z,6.60
2019-01-18T01:14:09.477Z,7.25
2019-01-18T01:16:52.103Z,3.75
2019-01-18T01:19:34.774Z,4.95
2019-01-18T01:22:17.640Z,4.85
2019-01-18T01:25:00.298Z,3.08
2019-01-18T01:27:42.488Z,3.05
2019-01-18T01:30:25.580Z,2.72
2019-01-18T01:33:08.559Z,2.87
2019-01-18T01:35:51.103Z,5.22
2019-01-18T01:38:33.384Z,3.10
2019-01-18T01:41:15.511Z,3.50
2019-01-18T01:43:58.350Z,5.12
2019-01-18T01:46:40.559Z,2.87
2019-01-18T01:49:22.763Z,2.80
2019-01-18T01:52:04.974Z,2.67
2019-01-18T01:54:47.679Z,3.50
2019-01-18T01:57:29.638Z,3.03
2019-01-18T02:00:12.588Z,4.72
2019-01-18T02:02:55.021Z,3.20
2019-01-18T02:05:36.909Z,3.33
2019-01-18T02:08:19.869Z,3.30
2019-01-18T02:11:02.799Z,3.50
2019-01-18T02:13:45.554Z,3.95
2019-01-18T02:16:28.427Z,3.95
2019-01-18T02:19:10.966Z,4.53
2019-01-18T02:21:53.206Z,3.33
2019-01-18T02:24:36.154Z,4.62
2019-01-18T02:27:17.887Z,4.53
2019-01-18T02:30:00.154Z,4.58
2019-01-18T02:32:42.379Z,5.28
2019-01-18T02:35:24.338Z,3.67
2019-01-18T02:38:05.836Z,3.63
2019-01-18T02:40:48.518Z,5.20
2019-01-18T02:43:30.546Z,4.37
2019-01-18T02:46:14.543Z,4.15
2019-01-18T02:48:57.439Z,4.65
2019-01-18T02:51:39.988Z,4.08
2019-01-18T02:54:21.964Z,5.15
2019-01-18T02:57:04.023Z,5.63
2019-01-18T02:59:46.342Z,5.60
2019-01-18T03:02:29.048Z,3.85
2019-01-18T03:05:10.547Z,5.87
2019-01-18T03:08:00.058Z,4.33
2019-01-18T03:10:42.734Z,5.65
2019-01-18T03:13:25.543Z,7.60
2019-01-18T03:16:06.074Z,7.92
2019-01-18T03:18:55.622Z,4.53
2019-01-18T03:21:37.804Z,6.37
2019-01-18T03:24:19.915Z,5.00
2019-01-18T03:27:02.167Z,4.83
2019-01-18T03:29:44.949Z,4.87
2019-01-18T03:32:27.010Z,5.33
2019-01-18T03:35:08.657Z,4.92
2019-01-18T03:37:58.176Z,4.15
2019-01-18T03:40:40.274Z,4.42
2019-01-18T03:43:22.303Z,5.67
2019-01-18T03:46:04.386Z,5.40
2019-01-18T03:48:46.585Z,4.83
2019-01-18T03:51:29.325Z,3.95
2019-01-18T03:54:12.002Z,4.08
2019-01-18T03:56:54.907Z,4.67
2019-01-18T03:59:37.356Z,4.33
2019-01-18T04:02:19.627Z,4.60
2019-01-18T04:05:01.710Z,4.83
2019-01-18T04:07:43.808Z,4.03
2019-01-18T04:10:25.973Z,4.20
2019-01-18T04:13:08.519Z,3.80
2019-01-18T04:15:51.566Z,5.37
2019-01-18T04:18:33.351Z,6.73
2019-01-18T04:21:15.395Z,4.15
2019-01-18T04:23:57.082Z,3.97
2019-01-18T04:26:39.196Z,4.67
2019-01-18T04:29:22.143Z,7.03
2019-01-18T04:32:04.126Z,5.53
2019-01-18T04:34:45.885Z,3.80
2019-01-18T04:37:27.997Z,3.97
2019-01-18T04:40:10.137Z,6.60
2019-01-18T04:42:50.876Z,5.83
2019-01-18T04:45:40.411Z,4.60
2019-01-18T04:48:22.129Z,5.07
2019-01-18T04:51:05.082Z,5.65
2019-01-18T04:53:47.771Z,4.75
2019-01-18T04:56:29.819Z,6.67
2019-01-18T04:59:11.871Z,5.75
2019-01-18T05:01:54.765Z,3.98
2019-01-18T05:04:37.112Z,3.93
2019-01-18T05:07:19.299Z,3.67
2019-01-18T05:10:01.338Z,6.08
2019-01-18T05:12:41.818Z,5.37
2019-01-18T05:15:34.166Z,4.53
2019-01-18T05:18:16.964Z,4.42
2019-01-18T05:20:58.979Z,3.90
2019-01-18T05:23:40.978Z,6.75
2019-01-18T05:26:23.755Z,5.40
2019-01-18T05:29:05.616Z,5.80
2019-01-18T05:31:48.336Z,4.00
2019-01-18T05:34:30.176Z,6.80
2019-01-18T05:37:12.358Z,5.62
2019-01-18T05:39:53.932Z,5.97
2019-01-18T05:42:35.890Z,7.28
2019-01-18T05:45:18.099Z,4.83
2019-01-18T05:48:01.057Z,5.47
2019-01-18T05:50:43.098Z,5.85
2019-01-18T05:53:25.444Z,4.47
2019-01-18T05:56:07.615Z,6.33
2019-01-18T05:58:49.006Z,4.50
2019-01-18T06:01:30.947Z,8.03
2019-01-18T06:04:13.178Z,5.03
2019-01-18T06:06:55.163Z,6.05
2019-01-18T06:09:37.205Z,6.50
2019-01-18T06:12:19.589Z,6.90
2019-01-18T06:15:02.100Z,6.25
2019-01-18T06:17:44.063Z,4.27
2019-01-18T06:20:26.943Z,5.50
2019-01-18T06:23:10.179Z,5.08
2019-01-18T06:25:52.752Z,4.53
2019-01-18T06:28:34.794Z,5.55
2019-01-18T06:31:17.619Z,5.45
2019-01-18T06:33:59.511Z,5.33
2019-01-18T06:36:41.504Z,5.80
2019-01-18T06:39:24.227Z,6.20
2019-01-18T06:42:06.683Z,4.80
2019-01-18T06:44:49.007Z,5.60
2019-01-18T06:47:31.396Z,5.60
2019-01-18T06:50:13.366Z,5.67
2019-01-18T06:52:56.037Z,6.72
2019-01-18T06:55:38.975Z,5.35
2019-01-18T06:58:19.648Z,6.53
2019-01-18T07:01:08.321Z,6.47
2019-01-18T07:03:45.940Z,5.40
2019-01-18T07:06:27.819Z,9.83
2019-01-18T07:09:09.649Z,10.67
2019-01-18T07:11:52.535Z,5.42
2019-01-18T07:14:34.775Z,6.67
2019-01-18T07:17:16.558Z,5.75
2019-01-18T07:19:58.670Z,5.78
2019-01-18T07:22:28.957Z,7.95
2019-01-18T07:28:46.848Z,10.30
2019-01-18T07:31:17.316Z,5.95
2019-01-18T07:34:01.251Z,5.87
2019-01-18T07:36:43.994Z,7.10
2019-01-18T07:39:26.655Z,7.97
2019-01-18T07:42:08.837Z,9.37
2019-01-18T07:44:50.789Z,13.32
2019-01-18T07:47:33.863Z,7.28
2019-01-18T07:50:19.999Z,7.20
2019-01-18T07:52:59.824Z,7.25
2019-01-18T07:55:42.668Z,14.13
2019-01-18T07:58:24.788Z,7.37
2019-01-18T08:01:06.942Z,8.88
2019-01-18T08:03:49.783Z,8.25
2019-01-18T08:06:32.623Z,9.53
2019-01-18T08:09:15.415Z,5.95
2019-01-18T08:11:57.745Z,9.13
2019-01-18T08:14:39.857Z,11.95
2019-01-18T08:17:22.548Z,11.65
2019-01-18T08:20:04.810Z,7.03
2019-01-18T08:22:46.734Z,7.80
2019-01-18T08:25:29.696Z,6.35
2019-01-18T08:28:12.579Z,8.95
2019-01-18T08:30:54.307Z,6.87
2019-01-18T08:33:36.459Z,7.55
2019-01-18T08:36:19.062Z,6.35
2019-01-18T08:39:01.648Z,11.03
2019-01-18T08:41:44.552Z,5.95
2019-01-18T08:44:26.576Z,9.55
2019-01-18T08:47:08.759Z,8.05
2019-01-18T08:49:50.840Z,6.92
2019-01-18T08:52:32.748Z,8.05
2019-01-18T08:55:15.286Z,6.20
2019-01-18T08:57:57.587Z,7.22
2019-01-18T09:00:40.415Z,10.88
2019-01-18T09:03:22.335Z,8.95
2019-01-18T09:06:05.259Z,10.98
2019-01-18T09:08:47.315Z,7.15
2019-01-18T09:11:29.357Z,7.15
2019-01-18T09:14:11.482Z,7.03
2019-01-18T09:16:53.668Z,7.58
2019-01-18T09:19:35.687Z,9.03
2019-01-18T09:22:19.875Z,12.45
2019-01-18T09:25:02.924Z,8.20
2019-01-18T09:27:33.159Z,7.78
2019-01-18T09:30:05.517Z,8.43
2019-01-18T09:32:35.698Z,13.68
2019-01-18T09:35:09.826Z,8.45
2019-01-18T09:37:40.386Z,10.88
2019-01-18T09:40:16.462Z,9.18
2019-01-18T09:42:46.805Z,10.25
2019-01-18T09:45:17.157Z,7.45
2019-01-18T09:47:47.317Z,10.15
2019-01-18T09:50:19.755Z,8.50
2019-01-18T09:52:50.176Z,9.75
2019-01-18T09:55:20.542Z,9.03
2019-01-18T09:57:50.804Z,10.13
2019-01-18T10:00:29.515Z,10.25
2019-01-18T10:02:59.832Z,9.65
2019-01-18T10:05:30.472Z,14.78
2019-01-18T10:08:00.856Z,10.70
2019-01-18T10:10:31.145Z,7.62
2019-01-18T10:13:02.023Z,6.70
2019-01-18T10:15:35.027Z,7.22
2019-01-18T10:18:06.034Z,8.63
2019-01-18T10:20:36.322Z,9.05
2019-01-18T10:23:06.552Z,8.35
2019-01-18T10:25:36.742Z,9.25
2019-01-18T10:28:06.974Z,7.37
2019-01-18T10:30:37.333Z,8.13
2019-01-18T10:33:07.642Z,6.90
2019-01-18T10:35:37.964Z,7.42
2019-01-18T10:38:08.263Z,8.15
2019-01-18T10:40:38.519Z,7.50
2019-01-18T10:43:08.685Z,9.43
2019-01-18T10:45:38.948Z,3.90
2019-01-18T10:48:09.339Z,5.40
2019-01-18T10:50:39.622Z,5.22
2019-01-18T10:53:09.894Z,9.25
2019-01-18T10:55:40.197Z,6.95
2019-01-18T10:58:10.353Z,8.78
2019-01-18T11:00:41.002Z,9.13
2019-01-18T11:03:11.166Z,7.10
2019-01-18T11:05:41.406Z,8.15
2019-01-18T11:08:17.262Z,8.15
2019-01-18T11:10:43.401Z,10.48
2019-01-18T11:13:31.099Z,8.90
2019-01-18T11:16:01.897Z,9.15
2019-01-18T11:18:32.882Z,8.00
2019-01-18T11:21:03.462Z,8.85
2019-01-18T11:23:33.925Z,9.18
2019-01-18T11:26:04.490Z,9.50
2019-01-18T11:28:34.682Z,11.33
2019-01-18T11:31:04.923Z,7.55
2019-01-18T11:33:35.207Z,10.43
2019-01-18T11:36:05.602Z,7.42
2019-01-18T11:38:35.828Z,7.85
2019-01-18T11:41:06.103Z,7.08
2019-01-18T11:43:36.357Z,9.58
2019-01-18T11:46:06.893Z,8.13
2019-01-18T11:48:37.090Z,5.70
2019-01-18T11:51:07.230Z,6.12
2019-01-18T11:53:38.004Z,5.75
2019-01-18T11:56:08.370Z,5.40
2019-01-18T11:58:38.640Z,7.35
2019-01-18T12:01:08.906Z,5.42
2019-01-18T12:03:39.098Z,3.87
2019-01-18T12:06:09.446Z,4.37
2019-01-18T12:08:41.922Z,5.17
2019-01-18T12:11:11.501Z,7.72
2019-01-18T12:13:41.794Z,6.53
2019-01-18T12:16:11.944Z,5.45
2019-01-18T12:18:42.130Z,4.83
2019-01-18T12:21:12.294Z,5.12
2019-01-18T12:23:45.474Z,7.85
2019-01-18T12:26:18.462Z,7.78
2019-01-18T12:28:48.650Z,5.70
2019-01-18T12:31:18.816Z,7.20
2019-01-18T12:33:55.201Z,7.97
2019-01-18T12:36:26.406Z,5.92
2019-01-18T12:38:56.594Z,6.20
2019-01-18T12:41:26.814Z,5.25
2019-01-18T12:43:57.603Z,5.47
2019-01-18T12:46:27.748Z,5.67
2019-01-18T12:48:57.927Z,5.47
2019-01-18T12:51:28.154Z,5.95
2019-01-18T12:53:58.343Z,4.45
2019-01-18T12:56:28.771Z,6.60
2019-01-18T12:58:58.946Z,5.33
2019-01-18T13:01:29.117Z,4.85
2019-01-18T13:03:59.314Z,4.00
2019-01-18T13:06:30.997Z,4.10
2019-01-18T13:09:01.186Z,4.55
2019-01-18T13:11:31.465Z,3.67
2019-01-18T13:14:12.407Z,4.95
2019-01-18T13:16:42.646Z,8.13
2019-01-18T13:19:12.844Z,5.97
2019-01-18T13:21:43.598Z,4.87
2019-01-18T13:24:31.306Z,6.30
2019-01-18T13:27:02.982Z,6.53
2019-01-18T13:29:33.364Z,6.58
2019-01-18T13:32:03.889Z,6.15
2019-01-18T13:34:34.077Z,6.85
2019-01-18T13:37:10.185Z,7.67
2019-01-18T13:39:40.466Z,7.90
2019-01-18T13:42:10.770Z,9.33
2019-01-18T13:44:45.769Z,8.35
2019-01-18T13:47:19.076Z,6.55
2019-01-18T13:49:47.757Z,8.40
2019-01-18T13:52:17.918Z,8.40
2019-01-18T13:54:48.174Z,7.70
2019-01-18T13:57:18.331Z,6.20
2019-01-18T13:59:48.525Z,9.48
2019-01-18T14:02:18.993Z,8.90
2019-01-18T14:04:49.186Z,6.87
2019-01-18T14:07:19.367Z,11.20
2019-01-18T14:09:49.551Z,5.87
2019-01-18T14:12:19.752Z,7.60
2019-01-18T14:14:50.410Z,7.10
2019-01-18T14:17:20.589Z,12.15
2019-01-18T14:19:50.778Z,9.25
2019-01-18T14:22:20.946Z,8.63
2019-01-18T14:24:51.131Z,7.78
2019-01-18T14:27:21.297Z,9.70
2019-01-18T14:29:51.502Z,13.08
2019-01-18T14:32:21.702Z,35.60
2019-01-18T14:34:51.915Z,61.42
2019-01-18T14:37:22.089Z,62.75
2019-01-18T14:39:52.296Z,11.40
2019-01-18T14:42:22.469Z,11.68
2019-01-18T14:44:52.956Z,9.78
2019-01-18T14:47:23.442Z,8.53
2019-01-18T14:49:53.727Z,8.95
2019-01-18T14:52:23.885Z,9.63
2019-01-18T14:54:54.081Z,8.20
2019-01-18T14:57:24.242Z,9.48
2019-01-18T14:59:54.573Z,12.53
2019-01-18T15:02:24.923Z,20.43
2019-01-18T15:04:55.147Z,16.15
2019-01-18T15:07:26.836Z,14.90
2019-01-18T15:09:57.630Z,14.55
2019-01-18T15:12:27.953Z,11.33
2019-01-18T15:14:58.159Z,11.70
2019-01-18T15:17:34.513Z,10.20
2019-01-18T15:20:00.310Z,9.15
2019-01-18T15:22:30.469Z,7.53
2019-01-18T15:25:00.679Z,12.10
2019-01-18T15:27:30.875Z,8.43
2019-01-18T15:30:01.068Z,8.08
2019-01-18T15:32:32.984Z,8.83
2019-01-18T15:35:03.497Z,12.15
2019-01-18T15:37:33.671Z,8.90
2019-01-18T15:40:06.970Z,9.38
2019-01-18T15:42:37.146Z,10.45
2019-01-18T15:45:09.691Z,10.85
2019-01-18T15:47:40.006Z,11.48
2019-01-18T15:50:16.277Z,11.03
2019-01-18T15:52:46.554Z,11.33
2019-01-18T15:55:16.898Z,25.12
2019-01-18T15:57:47.167Z,20.00
2019-01-18T16:00:20.716Z,12.10
2019-01-18T16:02:51.066Z,12.35
2019-01-18T16:05:21.279Z,12.40
2019-01-18T16:07:51.461Z,11.93
2019-01-18T16:10:21.838Z,10.40
2019-01-18T16:12:52.060Z,8.48
2019-01-18T16:15:40.178Z,8.35
2019-01-18T16:18:13.449Z,6.45
2019-01-18T16:20:43.848Z,14.07
2019-01-18T16:23:14.043Z,16.10
2019-01-18T16:25:44.507Z,26.37
2019-01-18T16:28:15.787Z,24.23
2019-01-18T16:30:45.770Z,24.53
2019-01-18T16:33:15.380Z,20.83
2019-01-18T16:35:45.584Z,22.05
2019-01-18T16:38:16.219Z,20.15
2019-01-18T16:40:46.079Z,20.33
2019-01-18T16:43:22.314Z,25.97
2019-01-18T16:45:52.518Z,19.95
2019-01-18T16:48:22.124Z,15.40
2019-01-18T16:50:52.329Z,16.15
2019-01-18T16:53:22.082Z,25.37
2019-01-18T16:55:52.307Z,27.73
2019-01-18T16:58:22.023Z,24.90
2019-01-18T17:00:55.282Z,14.98
2019-01-18T17:03:30.132Z,18.77
2019-01-18T17:05:56.866Z,15.13
2019-01-18T17:08:27.086Z,19.15
2019-01-18T17:10:56.714Z,15.63
2019-01-18T17:13:26.574Z,18.10
2019-01-18T17:15:56.381Z,17.10
2019-01-18T17:18:26.256Z,21.47
2019-01-18T17:20:55.987Z,23.43
2019-01-18T17:23:25.618Z,16.53
2019-01-18T17:25:55.374Z,25.37
2019-01-18T17:28:25.145Z,62.00
2019-01-18T17:30:54.745Z,29.87
2019-01-18T17:33:24.526Z,24.90
2019-01-18T17:36:08.878Z,22.57
2019-01-18T17:38:57.507Z,24.23
2019-01-18T17:41:41.919Z,24.43
2019-01-18T17:44:23.439Z,21.30
2019-01-18T17:47:19.942Z,25.43
2019-01-18T17:49:58.438Z,24.90
2019-01-18T17:52:40.750Z,25.17
2019-01-18T17:55:32.791Z,28.93
2019-01-18T17:58:21.502Z,24.80
2019-01-18T18:01:27.142Z,21.10
2019-01-18T18:04:11.693Z,23.17
2019-01-18T18:06:50.158Z,24.47
2019-01-18T18:09:22.842Z,21.63
2019-01-18T18:12:16.558Z,21.47
2019-01-18T18:15:02.032Z,19.03
2019-01-18T18:17:43.548Z,22.33
2019-01-18T18:20:28.042Z,16.57
2019-01-18T18:23:09.643Z,16.13
2019-01-18T18:25:58.664Z,13.07
2019-01-18T18:28:55.359Z,17.50
2019-01-18T18:31:37.220Z,15.33
2019-01-18T18:34:15.713Z,13.47
2019-01-18T18:36:48.468Z,14.53
2019-01-18T18:39:48.402Z,15.33
2019-01-18T18:42:32.994Z,17.93
2019-01-18T18:45:29.479Z,18.03
2019-01-18T18:48:02.412Z,14.97
2019-01-18T18:50:41.102Z,15.10
2019-01-18T18:53:20.219Z,15.30
2019-01-18T18:55:55.999Z,20.60
2019-01-18T18:58:37.485Z,17.67
2019-01-18T19:01:29.342Z,18.10
2019-01-18T19:04:04.807Z,17.77
2019-01-18T19:07:04.307Z,15.97
2019-01-18T19:09:42.845Z,19.43
2019-01-18T19:12:18.254Z,14.77
2019-01-18T19:14:53.606Z,16.63
2019-01-18T19:17:26.744Z,17.07
2019-01-18T19:19:59.355Z,15.33
2019-01-18T19:22:32.106Z,18.53
2019-01-18T19:25:34.135Z,16.90
2019-01-18T19:28:09.318Z,23.90
2019-01-18T19:30:58.268Z,28.50
2019-01-18T19:33:36.851Z,30.43
2019-01-18T19:36:24.141Z,23.83
2019-01-18T19:39:20.564Z,25.60
2019-01-18T19:41:59.256Z,26.10
2019-01-18T19:44:40.854Z,27.57
2019-01-18T19:47:19.512Z,21.80
2019-01-18T19:50:03.932Z,21.90
2019-01-18T19:52:39.268Z,23.40
2019-01-18T19:55:31.202Z,26.67
2019-01-18T19:58:29.306Z,29.83
2019-01-18T20:01:14.078Z,26.17
2019-01-18T20:03:46.786Z,23.03
2019-01-18T20:06:52.495Z,23.37
2019-01-18T20:09:42.992Z,20.03
2019-01-18T20:12:24.375Z,24.93
2019-01-18T20:14:57.190Z,29.83
2019-01-18T20:17:41.799Z,44.47
2019-01-18T20:20:35.237Z,40.87
2019-01-18T20:23:10.754Z,41.80
2019-01-18T20:25:43.845Z,30.80
2019-01-18T20:28:34.477Z,47.10
2019-01-18T20:31:32.921Z,29.70
2019-01-18T20:34:27.842Z,27.63
2019-01-18T20:37:12.281Z,34.87
2019-01-18T20:39:59.898Z,30.33
2019-01-18T20:43:05.702Z,22.33
2019-01-18T20:45:47.228Z,20.27
2019-01-18T20:48:37.722Z,23.40
2019-01-18T20:51:28.341Z,27.30
2019-01-18T20:54:09.011Z,29.40
2019-01-18T20:56:41.713Z,29.87
2019-01-18T20:59:20.106Z,29.07
2019-01-18T21:01:55.682Z,29.93
2019-01-18T21:04:44.814Z,29.47
2019-01-18T21:07:38.407Z,26.10
2019-01-18T21:10:28.915Z,38.03
2019-01-18T21:13:01.594Z,41.03
2019-01-18T21:15:34.321Z,37.07
2019-01-18T21:18:07.003Z,28.37
2019-01-18T21:20:39.719Z,26.77
2019-01-18T21:23:24.058Z,23.40
2019-01-18T21:25:56.788Z,27.43
2019-01-18T21:28:35.318Z,27.40
2019-01-18T21:31:28.701Z,19.73
2019-01-18T21:34:16.221Z,20.70
2019-01-18T21:36:52.115Z,17.23
2019-01-18T21:39:27.555Z,14.47
2019-01-18T21:42:08.954Z,14.80
2019-01-18T21:45:08.631Z,17.47
2019-01-18T21:47:47.179Z,17.23
2019-01-18T21:50:44.893Z,14.43
2019-01-18T21:53:20.282Z,19.60
2019-01-18T21:56:11.105Z,18.27
2019-01-18T21:58:55.912Z,19.33
2019-01-18T22:01:28.621Z,18.67
2019-01-18T22:04:10.012Z,18.00
2019-01-18T22:07:03.550Z,16.73
2019-01-18T22:09:57.226Z,20.47
2019-01-18T22:12:44.597Z,21.73
2019-01-18T22:15:26.109Z,22.97
2019-01-18T22:18:07.562Z,18.87
2019-01-18T22:20:40.362Z,23.50
2019-01-18T22:23:15.651Z,22.07
2019-01-18T22:25:56.947Z,21.57
2019-01-18T22:28:45.407Z,14.07
2019-01-18T22:31:45.035Z,16.10
2019-01-18T22:34:26.327Z,16.13
2019-01-18T22:37:22.332Z,13.73
2019-01-18T22:40:17.136Z,18.33
2019-01-18T22:43:23.519Z,15.83
2019-01-18T22:46:13.826Z,16.73
2019-01-18T22:48:49.628Z,13.40
2019-01-18T22:51:38.487Z,17.30
2019-01-18T22:54:23.253Z,15.50
2019-01-18T22:57:21.310Z,16.33
2019-01-18T23:00:44.671Z,14.27
2019-01-18T23:03:20.094Z,13.23
2019-01-18T23:05:54.628Z,12.77
2019-01-18T23:08:47.349Z,11.47
2019-01-18T23:11:24.687Z,10.43
2019-01-18T23:14:00.195Z,12.53
2019-01-18T23:16:40.210Z,12.70
2019-01-18T23:19:24.742Z,13.37
2019-01-18T23:22:09.414Z,13.50
2019-01-18T23:24:45.246Z,13.20
2019-01-18T23:27:32.575Z,12.17
2019-01-18T23:30:23.188Z,16.90
2019-01-18T23:33:04.792Z,13.27
2019-01-18T23:35:55.470Z,14.37
2019-01-18T23:38:46.027Z,12.77
2019-01-18T23:41:21.433Z,12.13
2019-01-18T23:44:02.930Z,18.03
2019-01-18T23:46:40.086Z,17.30
2019-01-18T23:49:24.502Z,16.13
2019-01-18T23:52:12.230Z,17.47
2019-01-18T23:55:11.776Z,15.73
2019-01-18T23:57:50.534Z,15.77
